Startpagina
METAR-TAF:

METAR-TAF

Vliegvelden :

Curaçao International Airport

Curaçao, Nederlandse Antillen

breedte: 12-12N, lengte: 068-58W, hoogte: 9 m

Actueel weer

Dit bericht is 57 minuten geleden gemaakt, om 16:00 UTC
Wind 13 kt uit het oosten
Temperatuur 32°C
Vochtigheid 59%
Druk 1015 hPa
Zicht 10 km of meer
Weinig wolken op 2600 ft

METAR: TNCC 141600Z 10013KT 9999 FEW026 32/23 Q1015 NOSIG

Tijdstip: 12:57 (16:57 UTC)

Verwachting

Dit bericht is 5 uur en het 42 minuten geleden gemaakt, om 11:15 UTC
Verwachting geldig van 14 om 12 UTC tot 15 om 12 UTC
Wind 14 kt uit het oostzuidoosten
Zicht 10 km of meer
Verspreide wolken op 2000 ft
Tijdelijke
van 14 om 12 UTC tot 14 om 15 UTC
Gebroken wolken op 1500 ft

TAF: TNCC 141115Z 1412/1512 11014KT 9999 SCT020 TEMPO 1412/1415 BKN015

Waarnemingen en weersverwachtingen van meer dan 4000 vliegvelden (METAR en TAF).

De beschikbare stations zijn de gele en rode punten op de kaart.

Ga met uw muis naar het station om de naam te zien.

Klik dan om waarnemingen en weersverwachtingen te zien.

kaart wijzigen: klik op de groene knoppen met een zwart kruis om in te zoomen, op de groene knop met een streepje om uit te zoomen of op de groene pijlen voor aangrenzende kaarten.


METAR-TAF: